Japan Airlines Virtual Airport Information Service

Komatsu Airport

ICAO: RJNK Country: Japan
Latitude: 36.3946 Longitude: 136.406
Latest Arrival : BAW426 (RJAF-RJNK) Latest Departure : BAW426 (RJNK-RJOR)


WX CaptureLIVE
Data provided by noaa.gov | Fetched at 08:54:28

METAR : RJNK 090800Z 36008KT 9999 FEW020 SCT180 BKN230 27/22 Q1007

TAF : RJNK 090505Z 0906/1012 02004KT 9999 FEW020 BKN050 BECMG 0918/0921 20008KT TEMPO 0921/1000 4000 SHRA BR


Runway Data for RJNK
Data provided by openaviationdata.com

Runway ID Mag Var Hdg Length Elevation Surface ILS Freq ILS Id ILS Slope
6 -8 63° 8857 ft 18 ft Concrete 110.1 IKM 2
24 -8 243° 8857 ft 18 ft Concrete -- -- --

Komatsu Airport, Japan
Use only for reference purposes



Not for navigational purposes.